aviador You're here:

PAEI Decoded Metar

FAIRBANKS in AK, USA
Report Time2018-02-21 20:56:00
UTC Time2018-02-21 21:17:45
Flight Rules vfr VFR
WindCalm
Visibility9999 m
Phenomena:N/A
Clouds:N/A
Expected CloudBase > 800 ft AGL from Temp-Dew spread
CeilingNone
Temp-13°C (ISA -27)
Dew Point-15°C (85% RH)
AAT-16.4°C
QNH1027 hPa
Density Alt-3,291 ft
Elevation548 ft
Report Wrong Elevation
Raw Report
METAR PAEI 212056Z AUTO 00000KT 8SM CLR M13/M15 A3033 RMK AO2 SNB1957E06SNB20E34
SLP286 P0000 60000 T11271146 57010 VISNO RWY32 $=

Extra information for PAEI:More info

Metar Taf Metar & Taf Last 4 Metars F.Rules Stats Wind Profile Meteogram Temp Stats Airport Information Weather charts Add Link Nearby VenuesMetar ALERT Operation Metar Decoded Social comments

AIRNAV info for PAEI